Time;durP1;ratioP1;P1;durP2;ratioP2;P2;SDS_P1;SDS_P2;PMS_P1;PMS_P2;Temp;Humidity;BMP_temperature;BMP_pressure;BME280_temperature;BME280_humidity;BME280_pressure;Samples;Min_cycle;Max_cycle;Signal;HPM_P1;HPM_P2
2023/02/23 00:00:52;;;;;;;;;;;;;;;;;;4440427;32;19951;-76
2023/02/23 00:03:17;;;;;;;;;;;;;;;;;;4440036;32;19970;-75
2023/02/23 00:05:42;;;;;;;;;;;;;;;;;;4439398;32;19936;-75
2023/02/23 00:08:08;;;;;;;;;;;;;;;;;;4439462;32;19932;-75
2023/02/23 00:10:33;;;;;;;;;;;;;;;;;;4438064;32;19955;-75
2023/02/23 00:12:58;;;;;;;;;;;;;;;;;;4438040;32;20219;-74
2023/02/23 00:15:25;;;;;;;;;;;;;;;;;;4439100;32;19947;-76
2023/02/23 00:17:50;;;;;;;;;;;;;;;;;;4438287;32;19936;-75
2023/02/23 00:20:16;;;;;;;;;;;;;;;;;;4438375;32;19933;-75
2023/02/23 00:22:41;;;;;;;;;;;;;;;;;;4423926;32;20340;-75
2023/02/23 00:25:06;;;;;;;;;;;;;;;;;;4438849;32;19972;-76
2023/02/23 00:27:32;;;;;;;;;;;;;;;;;;4438489;32;19973;-74
2023/02/23 00:29:57;;;;;;;;;;;;;;;;;;4424158;32;19967;-75
2023/02/23 00:32:22;;;;;;;;;;;;;;;;;;4439172;32;19943;-75
2023/02/23 00:34:51;;;;;;;;;;;;;;;;;;4425966;32;19937;-75
2023/02/23 00:37:16;;;;;;;;;;;;;;;;;;4438774;32;19936;-75
2023/02/23 00:39:41;;;;;;;;;;;;;;;;;;4439389;32;19955;-76
2023/02/23 00:42:06;;;;;;;;;;;;;;;;;;4439131;32;19946;-75
2023/02/23 00:44:32;;;;;;;;;;;;;;;;;;4439390;32;19937;-76
2023/02/23 00:46:57;;;;;;;;;;;;;;;;;;4438241;32;20012;-76
2023/02/23 00:49:22;;;;;;;;;;;;;;;;;;4439375;32;19937;-75
2023/02/23 00:51:48;;;;;;;;;;;;;;;;;;4437496;32;19986;-75
2023/02/23 00:54:13;;;;;;;;;;;;;;;;;;4438646;32;19980;-76
2023/02/23 00:56:38;;;;;;;;;;;;;;;;;;4439966;32;19941;-75
2023/02/23 00:59:03;;;;;;;;;;;;;;;;;;4438681;32;19941;-75
2023/02/23 01:01:28;;;;;;;;;;;;;;;;;;4439476;32;19979;-75
2023/02/23 01:03:53;;;;;;;;;;;;;;;;;;4438040;32;20307;-76
2023/02/23 01:06:18;;;;;;;;;;;;;;;;;;4439474;32;19941;-76
2023/02/23 01:08:44;;;;;;;;;;;;;;;;;;4439890;32;19933;-77
2023/02/23 01:11:09;;;;;;;;;;;;;;;;;;4440261;32;19986;-76
2023/02/23 01:13:34;;;;;;;;;;;;;;;;;;4440390;32;19933;-76
2023/02/23 01:15:59;;;;;;;;;;;;;;;;;;4429306;32;19947;-75
2023/02/23 01:18:24;;;;;;;;;;;;;;;;;;4442502;32;19933;-76
2023/02/23 01:20:49;;;;;;;;;;;;;;;;;;4438723;32;19956;-76
2023/02/23 01:23:14;;;;;;;;;;;;;;;;;;4438060;32;19959;-77
2023/02/23 01:25:40;;;;;;;;;;;;;;;;;;4438152;32;19971;-77
2023/02/23 01:28:05;;;;;;;;;;;;;;;;;;4438122;32;19937;-76
2023/02/23 01:30:30;;;;;;;;;;;;;;;;;;4423884;32;20004;-77
2023/02/23 01:32:55;;;;;;;;;;;;;;;;;;4437328;32;19947;-76
2023/02/23 01:35:20;;;;;;;;;;;;;;;;;;4437993;32;19933;-77
2023/02/23 01:37:45;;;;;;;;;;;;;;;;;;4437788;32;19937;-76
2023/02/23 01:40:13;;;;;;;;;;;;;;;;;;4436626;32;19947;-76
2023/02/23 01:42:38;;;;;;;;;;;;;;;;;;4436616;32;19945;-75
2023/02/23 01:45:03;;;;;;;;;;;;;;;;;;4437616;32;19956;-76
2023/02/23 01:47:28;;;;;;;;;;;;;;;;;;4438383;32;19941;-76
2023/02/23 01:49:53;;;;;;;;;;;;;;;;;;4436762;32;19941;-76
2023/02/23 01:52:19;;;;;;;;;;;;;;;;;;4438214;32;19967;-76
2023/02/23 01:54:49;;;;;;;;;;;;;;;;;;4436800;32;19937;-77
2023/02/23 01:57:14;;;;;;;;;;;;;;;;;;4438259;32;20027;-76
2023/02/23 01:59:39;;;;;;;;;;;;;;;;;;4438247;32;19933;-76
2023/02/23 02:02:04;;;;;;;;;;;;;;;;;;4436829;32;19940;-77
2023/02/23 02:04:32;;;;;;;;;;;;;;;;;;4436483;32;19946;-76
2023/02/23 02:07:00;;;;;;;;;;;;;;;;;;4436566;32;20015;-77
2023/02/23 02:09:27;;;;;;;;;;;;;;;;;;4437201;32;19947;-76
2023/02/23 02:11:53;;;;;;;;;;;;;;;;;;4436335;32;20325;-76
2023/02/23 02:14:18;;;;;;;;;;;;;;;;;;4437913;32;19932;-77
2023/02/23 02:16:43;;;;;;;;;;;;;;;;;;4437839;32;19961;-77
2023/02/23 02:19:08;;;;;;;;;;;;;;;;;;4436470;32;19933;-76
2023/02/23 02:21:34;;;;;;;;;;;;;;;;;;4422567;32;19996;-76
2023/02/23 02:23:59;;;;;;;;;;;;;;;;;;4438284;32;19990;-77
2023/02/23 02:26:24;;;;;;;;;;;;;;;;;;4437785;32;19948;-75
2023/02/23 02:28:49;;;;;;;;;;;;;;;;;;4436423;32;19932;-76
2023/02/23 02:31:14;;;;;;;;;;;;;;;;;;4436369;32;19933;-76
2023/02/23 02:33:42;;;;;;;;;;;;;;;;;;4436518;32;19933;-76
2023/02/23 02:36:07;;;;;;;;;;;;;;;;;;4437034;32;19972;-76
2023/02/23 02:38:33;;;;;;;;;;;;;;;;;;4437570;32;19974;-76
2023/02/23 02:40:59;;;;;;;;;;;;;;;;;;4421875;32;19980;-76
2023/02/23 02:43:24;;;;;;;;;;;;;;;;;;4435767;32;19971;-76
2023/02/23 02:45:49;;;;;;;;;;;;;;;;;;4436449;32;19937;-77
2023/02/23 02:48:15;;;;;;;;;;;;;;;;;;4437876;32;19933;-76
2023/02/23 02:50:40;;;;;;;;;;;;;;;;;;4436097;32;19937;-76
2023/02/23 02:53:05;;;;;;;;;;;;;;;;;;4436309;32;19947;-76
2023/02/23 02:55:33;;;;;;;;;;;;;;;;;;4422175;32;19940;-77
2023/02/23 02:57:58;;;;;;;;;;;;;;;;;;4437478;32;19974;-76
2023/02/23 04:19:02;;;;;;;;;;;;;;;;;;4438312;32;20270;-77
2023/02/23 04:21:27;;;;;;;;;;;;;;;;;;4425428;32;20018;-76
2023/02/23 04:23:53;;;;;;;;;;;;;;;;;;4438397;32;19933;-76
2023/02/23 04:26:18;;;;;;;;;;;;;;;;;;4437749;32;19980;-77
2023/02/23 04:28:43;;;;;;;;;;;;;;;;;;4439986;32;19978;-77
2023/02/23 04:31:08;;;;;;;;;;;;;;;;;;4438785;32;19996;-76
2023/02/23 04:33:33;;;;;;;;;;;;;;;;;;4437727;32;19933;-77
2023/02/23 04:35:58;;;;;;;;;;;;;;;;;;4423687;32;19936;-77
2023/02/23 04:38:23;;;;;;;;;;;;;;;;;;4439289;32;19973;-77
2023/02/23 04:40:48;;;;;;;;;;;;;;;;;;4438011;32;19988;-77
2023/02/23 04:43:13;;;;;;;;;;;;;;;;;;4437901;32;20354;-77
2023/02/23 04:45:39;;;;;;;;;;;;;;;;;;4438311;32;20283;-78
2023/02/23 04:48:04;;;;;;;;;;;;;;;;;;4439418;32;19950;-78
2023/02/23 04:50:29;;;;;;;;;;;;;;;;;;4437510;32;19952;-77
2023/02/23 04:52:54;;;;;;;;;;;;;;;;;;4439161;32;19933;-78
2023/02/23 04:55:20;;;;;;;;;;;;;;;;;;4437382;32;19948;-77
2023/02/23 04:57:45;;;;;;;;;;;;;;;;;;4438852;32;19943;-78
2023/02/23 05:00:10;;;;;;;;;;;;;;;;;;4437682;32;19952;-78
2023/02/23 05:02:35;;;;;;;;;;;;;;;;;;4438984;32;19941;-78
2023/02/23 05:05:00;;;;;;;;;;;;;;;;;;4439232;32;20299;-78
2023/02/23 05:07:25;;;;;;;;;;;;;;;;;;4437810;32;20302;-78
2023/02/23 05:09:50;;;;;;;;;;;;;;;;;;4439604;32;19948;-78
2023/02/23 05:12:15;;;;;;;;;;;;;;;;;;4438810;32;19933;-78
2023/02/23 05:14:41;;;;;;;;;;;;;;;;;;4440258;32;19976;-78
2023/02/23 05:17:07;;;;;;;;;;;;;;;;;;4440580;32;19936;-78
2023/02/23 05:19:32;;;;;;;;;;;;;;;;;;4438215;32;19933;-78
2023/02/23 05:21:57;;;;;;;;;;;;;;;;;;4440164;32;19941;-78
2023/02/23 05:24:22;;;;;;;;;;;;;;;;;;4438663;32;19947;-78
2023/02/23 05:26:47;;;;;;;;;;;;;;;;;;4424419;32;19937;-77
2023/02/23 05:29:12;;;;;;;;;;;;;;;;;;4437227;32;19959;-77
2023/02/23 05:31:37;;;;;;;;;;;;;;;;;;4423385;32;19972;-78
2023/02/23 05:34:03;;;;;;;;;;;;;;;;;;4424683;32;20314;-78
2023/02/23 05:36:28;;;;;;;;;;;;;;;;;;4437967;32;19955;-78
2023/02/23 05:38:53;;;;;;;;;;;;;;;;;;4437462;32;19977;-78
2023/02/23 05:41:18;;;;;;;;;;;;;;;;;;4436631;32;19973;-78
2023/02/23 05:43:43;;;;;;;;;;;;;;;;;;4436538;32;19932;-78
2023/02/23 05:46:08;;;;;;;;;;;;;;;;;;4436492;32;19970;-77
2023/02/23 05:48:33;;;;;;;;;;;;;;;;;;4436910;32;19948;-77
2023/02/23 05:50:59;;;;;;;;;;;;;;;;;;4436519;32;19948;-78
2023/02/23 05:53:24;;;;;;;;;;;;;;;;;;4437722;32;19936;-77
2023/02/23 05:55:49;;;;;;;;;;;;;;;;;;4423370;32;20219;-78
2023/02/23 05:58:15;;;;;;;;;;;;;;;;;;4437599;32;19940;-77
2023/02/23 06:00:40;;;;;;;;;;;;;;;;;;4437518;32;19948;-78
2023/02/23 06:03:05;;;;;;;;;;;;;;;;;;4436563;32;19933;-78
2023/02/23 06:05:30;;;;;;;;;;;;;;;;;;4437914;32;19937;-78
2023/02/23 06:07:55;;;;;;;;;;;;;;;;;;4437602;32;19948;-78
2023/02/23 06:10:21;;;;;;;;;;;;;;;;;;4424460;32;19992;-79
2023/02/23 06:12:46;;;;;;;;;;;;;;;;;;4436829;32;19937;-76
2023/02/23 06:15:11;;;;;;;;;;;;;;;;;;4436324;32;19992;-76
2023/02/23 06:17:36;;;;;;;;;;;;;;;;;;4436451;32;19933;-78
2023/02/23 06:20:03;;;;;;;;;;;;;;;;;;4437084;32;20266;-78
2023/02/23 06:22:28;;;;;;;;;;;;;;;;;;4436630;32;19941;-78
2023/02/23 06:24:53;;;;;;;;;;;;;;;;;;4437920;32;19972;-77
2023/02/23 06:27:19;;;;;;;;;;;;;;;;;;4437655;32;19955;-79
2023/02/23 06:29:44;;;;;;;;;;;;;;;;;;4436029;32;19963;-79
2023/02/23 06:32:09;;;;;;;;;;;;;;;;;;4422167;32;19988;-78
2023/02/23 06:34:35;;;;;;;;;;;;;;;;;;4436426;32;19936;-79
2023/02/23 06:37:00;;;;;;;;;;;;;;;;;;4438460;32;19933;-78
2023/02/23 06:39:25;;;;;;;;;;;;;;;;;;4436358;32;19937;-78
2023/02/23 06:41:50;;;;;;;;;;;;;;;;;;4436022;32;19940;-78
2023/02/23 06:44:15;;;;;;;;;;;;;;;;;;4434974;32;19952;-78
2023/02/23 06:46:40;;;;;;;;;;;;;;;;;;4426532;32;19937;-79
2023/02/23 06:49:05;;;;;;;;;;;;;;;;;;4437512;32;19987;-79
2023/02/23 06:51:30;;;;;;;;;;;;;;;;;;4437438;32;19933;-77
2023/02/23 06:53:56;;;;;;;;;;;;;;;;;;4436383;32;19973;-78
2023/02/23 06:56:21;;;;;;;;;;;;;;;;;;4437207;32;19956;-78
2023/02/23 06:58:46;;;;;;;;;;;;;;;;;;4436572;32;19941;-78
2023/02/23 07:01:11;;;;;;;;;;;;;;;;;;4422893;32;19973;-78
2023/02/23 07:03:37;;;;;;;;;;;;;;;;;;4426857;32;19952;-78
2023/02/23 07:06:03;;;;;;;;;;;;;;;;;;4428384;32;19941;-78
2023/02/23 07:08:28;;;;;;;;;;;;;;;;;;4435709;32;19937;-79
2023/02/23 07:10:53;;;;;;;;;;;;;;;;;;4436863;32;19932;-78
2023/02/23 07:13:20;;;;;;;;;;;;;;;;;;4435543;32;20331;-78
2023/02/23 07:15:45;;;;;;;;;;;;;;;;;;4436643;32;19941;-79
2023/02/23 07:18:10;;;;;;;;;;;;;;;;;;4436072;32;19948;-78
2023/02/23 07:20:36;;;;;;;;;;;;;;;;;;4436262;32;19933;-79
2023/02/23 07:23:01;;;;;;;;;;;;;;;;;;4435881;32;19933;-78
2023/02/23 07:25:26;;;;;;;;;;;;;;;;;;4422868;32;19955;-78
2023/02/23 07:27:52;;;;;;;;;;;;;;;;;;4436286;32;19936;-80
2023/02/23 07:30:18;;;;;;;;;;;;;;;;;;4435972;32;20036;-78
2023/02/23 07:32:43;;;;;;;;;;;;;;;;;;4435813;32;20318;-79
2023/02/23 07:35:08;;;;;;;;;;;;;;;;;;4435636;32;19932;-79
2023/02/23 07:37:33;;;;;;;;;;;;;;;;;;4437052;32;19951;-79
2023/02/23 07:39:58;;;;;;;;;;;;;;;;;;4436647;32;19933;-79
2023/02/23 07:42:25;;;;;;;;;;;;;;;;;;4436036;32;19963;-76
2023/02/23 07:44:51;;;;;;;;;;;;;;;;;;4423759;32;19969;-79
2023/02/23 07:47:16;;;;;;;;;;;;;;;;;;4424882;32;19993;-77
2023/02/23 07:49:41;;;;;;;;;;;;;;;;;;4419576;32;20314;-77
2023/02/23 07:52:06;;;;;;;;;;;;;;;;;;4421783;32;19943;-77
2023/02/23 07:54:32;;;;;;;;;;;;;;;;;;4438827;32;19989;-78
2023/02/23 07:56:58;;;;;;;;;;;;;;;;;;4441756;32;20002;-78
2023/02/23 07:59:23;;;;;;;;;;;;;;;;;;4439668;32;20307;-79
2023/02/23 08:01:48;;;;;;;;;;;;;;;;;;4438788;32;20345;-77
2023/02/23 08:04:13;;;;;;;;;;;;;;;;;;4438472;32;20239;-77
2023/02/23 08:06:38;;;;;;;;;;;;;;;;;;4439818;32;20318;-78
2023/02/23 08:09:03;;;;;;;;;;;;;;;;;;4438800;32;20000;-77
2023/02/23 08:11:28;;;;;;;;;;;;;;;;;;4438936;32;19967;-78
2023/02/23 08:13:55;;;;;;;;;;;;;;;;;;4438614;32;19932;-78
2023/02/23 08:16:20;;;;;;;;;;;;;;;;;;4438638;32;20317;-78
2023/02/23 08:18:45;;;;;;;;;;;;;;;;;;4438419;32;19932;-78
2023/02/23 08:21:10;;;;;;;;;;;;;;;;;;4424486;32;19963;-78
2023/02/23 08:23:35;;;;;;;;;;;;;;;;;;4425951;32;20104;-78
2023/02/23 08:26:01;;;;;;;;;;;;;;;;;;4426400;32;19966;-78
2023/02/23 08:28:26;;;;;;;;;;;;;;;;;;4439662;32;20291;-80
2023/02/23 08:30:51;;;;;;;;;;;;;;;;;;4439307;32;20261;-76
2023/02/23 08:33:17;;;;;;;;;;;;;;;;;;4439349;32;19941;-78
2023/02/23 08:35:43;;;;;;;;;;;;;;;;;;4439240;32;19978;-79
2023/02/23 08:38:09;;;;;;;;;;;;;;;;;;4438561;32;19947;-78
2023/02/23 08:40:34;;;;;;;;;;;;;;;;;;4438958;32;19937;-78
2023/02/23 08:42:59;;;;;;;;;;;;;;;;;;4436014;32;19945;-77
2023/02/23 08:45:24;;;;;;;;;;;;;;;;;;4409071;32;20321;-78
2023/02/23 08:47:49;;;;;;;;;;;;;;;;;;4423962;32;19938;-78
2023/02/23 08:50:14;;;;;;;;;;;;;;;;;;4424910;32;19933;-79
2023/02/23 08:52:39;;;;;;;;;;;;;;;;;;4427823;32;20379;-78
2023/02/23 08:55:04;;;;;;;;;;;;;;;;;;4421147;32;19957;-78
2023/02/23 08:57:30;;;;;;;;;;;;;;;;;;4425168;32;19941;-77
2023/02/23 08:59:55;;;;;;;;;;;;;;;;;;4422949;32;19955;-77
2023/02/23 09:02:21;;;;;;;;;;;;;;;;;;4422921;32;19937;-77
2023/02/23 09:04:46;;;;;;;;;;;;;;;;;;4434062;32;19937;-78
2023/02/23 09:07:11;;;;;;;;;;;;;;;;;;4430616;32;19959;-77
2023/02/23 09:09:37;;;;;;;;;;;;;;;;;;4430477;32;19964;-78
2023/02/23 09:12:02;;;;;;;;;;;;;;;;;;4438415;32;19952;-76
2023/02/23 09:14:28;;;;;;;;;;;;;;;;;;4440553;32;20222;-78
2023/02/23 09:16:53;;;;;;;;;;;;;;;;;;4443891;32;19953;-77
2023/02/23 09:19:19;;;;;;;;;;;;;;;;;;4427215;32;19944;-78
2023/02/23 09:21:44;;;;;;;;;;;;;;;;;;4439577;32;20309;-78
2023/02/23 09:24:09;;;;;;;;;;;;;;;;;;4438071;32;19932;-79
2023/02/23 09:26:39;;;;;;;;;;;;;;;;;;4438069;32;19932;-78
2023/02/23 09:29:04;;;;;;;;;;;;;;;;;;4438437;32;19985;-78
2023/02/23 09:31:29;;;;;;;;;;;;;;;;;;4424337;32;19941;-79
2023/02/23 09:33:54;;;;;;;;;;;;;;;;;;4437367;32;19940;-78
2023/02/23 09:36:19;;;;;;;;;;;;;;;;;;4439368;32;20314;-78
2023/02/23 09:38:44;;;;;;;;;;;;;;;;;;4423980;32;19950;-78
2023/02/23 09:41:09;;;;;;;;;;;;;;;;;;4424939;32;19941;-78
2023/02/23 09:43:34;;;;;;;;;;;;;;;;;;4423047;32;19947;-79
2023/02/23 09:45:59;;;;;;;;;;;;;;;;;;4423152;32;19976;-79
2023/02/23 09:48:24;;;;;;;;;;;;;;;;;;4421677;32;20280;-79
2023/02/23 09:50:50;;;;;;;;;;;;;;;;;;4421621;32;19941;-79
2023/02/23 09:53:15;;;;;;;;;;;;;;;;;;4409583;32;19948;-80
2023/02/23 09:55:40;;;;;;;;;;;;;;;;;;4422225;32;19989;-79
2023/02/23 09:58:05;;;;;;;;;;;;;;;;;;4423360;32;19933;-79
2023/02/23 10:00:30;;;;;;;;;;;;;;;;;;4409732;32;19933;-78
2023/02/23 10:02:55;;;;;;;;;;;;;;;;;;4421939;32;19941;-78
2023/02/23 10:05:21;;;;;;;;;;;;;;;;;;4422711;32;19942;-80
2023/02/23 10:07:46;;;;;;;;;;;;;;;;;;4421914;32;19971;-78
2023/02/23 10:10:11;;;;;;;;;;;;;;;;;;4427575;32;19988;-79
2023/02/23 10:12:36;;;;;;;;;;;;;;;;;;4438027;32;20270;-78
2023/02/23 10:15:05;;;;;;;;;;;;;;;;;;4437398;32;19948;-78
2023/02/23 10:17:30;;;;;;;;;;;;;;;;;;4437186;32;19945;-78
2023/02/23 10:19:56;;;;;;;;;;;;;;;;;;4436844;32;19941;-78
2023/02/23 10:22:21;;;;;;;;;;;;;;;;;;4437554;32;20277;-78
2023/02/23 10:24:46;;;;;;;;;;;;;;;;;;4435983;32;19971;-78
2023/02/23 10:27:11;;;;;;;;;;;;;;;;;;4438050;32;19933;-79
2023/02/23 10:29:36;;;;;;;;;;;;;;;;;;4423174;32;20029;-79
2023/02/23 10:32:01;;;;;;;;;;;;;;;;;;4436960;32;19943;-79
2023/02/23 10:34:28;;;;;;;;;;;;;;;;;;4423263;32;20121;-79
2023/02/23 10:36:53;;;;;;;;;;;;;;;;;;4423293;32;20386;-79
2023/02/23 10:39:18;;;;;;;;;;;;;;;;;;4436559;32;19989;-78
2023/02/23 10:41:43;;;;;;;;;;;;;;;;;;4436678;32;19951;-78
2023/02/23 10:44:08;;;;;;;;;;;;;;;;;;4424834;32;20243;-79
2023/02/23 10:46:33;;;;;;;;;;;;;;;;;;4437947;32;19966;-78
2023/02/23 10:48:59;;;;;;;;;;;;;;;;;;4433368;32;19976;-78
2023/02/23 10:51:24;;;;;;;;;;;;;;;;;;4432496;32;20344;-78
2023/02/23 10:53:51;;;;;;;;;;;;;;;;;;4425868;32;19941;-76
2023/02/23 10:56:17;;;;;;;;;;;;;;;;;;4419278;32;19943;-79
2023/02/23 10:58:42;;;;;;;;;;;;;;;;;;4429501;32;20801;-79
2023/02/23 11:01:07;;;;;;;;;;;;;;;;;;4425508;32;19984;-76
2023/02/23 11:03:32;;;;;;;;;;;;;;;;;;4414416;32;19941;-77
2023/02/23 11:05:57;;;;;;;;;;;;;;;;;;4413541;32;19988;-78
2023/02/23 11:08:22;;;;;;;;;;;;;;;;;;4429110;32;19936;-78
2023/02/23 11:10:48;;;;;;;;;;;;;;;;;;4413086;32;20002;-77
2023/02/23 11:13:13;;;;;;;;;;;;;;;;;;4411189;32;19945;-78
2023/02/23 11:15:42;;;;;;;;;;;;;;;;;;4425513;32;20028;-77
2023/02/23 11:18:08;;;;;;;;;;;;;;;;;;4431176;32;20006;-76
2023/02/23 11:20:34;;;;;;;;;;;;;;;;;;4440639;32;19933;-79
2023/02/23 11:22:59;;;;;;;;;;;;;;;;;;4421480;32;19972;-77
2023/02/23 11:25:25;;;;;;;;;;;;;;;;;;4432758;32;19945;-76
2023/02/23 11:27:51;;;;;;;;;;;;;;;;;;4434211;32;20022;-78
2023/02/23 11:30:19;;;;;;;;;;;;;;;;;;4419298;32;19933;-78
2023/02/23 11:32:44;;;;;;;;;;;;;;;;;;4435167;32;19980;-77
2023/02/23 11:35:09;;;;;;;;;;;;;;;;;;4437476;32;19937;-78
2023/02/23 11:37:36;;;;;;;;;;;;;;;;;;4432098;32;19940;-77
2023/02/23 11:40:01;;;;;;;;;;;;;;;;;;4440074;32;19949;-78
2023/02/23 11:42:26;;;;;;;;;;;;;;;;;;4429363;32;20013;-79
2023/02/23 11:44:51;;;;;;;;;;;;;;;;;;4430356;32;19948;-78
2023/02/23 11:47:17;;;;;;;;;;;;;;;;;;4433235;32;19952;-79
2023/02/23 11:49:45;;;;;;;;;;;;;;;;;;4434049;32;20028;-74
2023/02/23 11:52:10;;;;;;;;;;;;;;;;;;4428101;32;19964;-77
2023/02/23 11:54:37;;;;;;;;;;;;;;;;;;4436303;32;19952;-78
2023/02/23 11:57:02;;;;;;;;;;;;;;;;;;4436475;32;19955;-78
2023/02/23 11:59:27;;;;;;;;;;;;;;;;;;4427592;32;20337;-78
2023/02/23 12:01:53;;;;;;;;;;;;;;;;;;4433258;32;20109;-77
2023/02/23 12:04:18;;;;;;;;;;;;;;;;;;4432297;32;19986;-77
2023/02/23 12:06:43;;;;;;;;;;;;;;;;;;4438633;32;20286;-79
2023/02/23 12:09:08;;;;;;;;;;;;;;;;;;4439858;32;20011;-77
2023/02/23 12:11:36;;;;;;;;;;;;;;;;;;4424163;32;20064;-78
2023/02/23 12:14:01;;;;;;;;;;;;;;;;;;4439066;32;20085;-78
2023/02/23 12:16:26;;;;;;;;;;;;;;;;;;4423709;32;19941;-78
2023/02/23 12:18:51;;;;;;;;;;;;;;;;;;4427113;32;20306;-78
2023/02/23 12:21:17;;;;;;;;;;;;;;;;;;4421748;32;19970;-79
2023/02/23 12:23:42;;;;;;;;;;;;;;;;;;4421896;32;19967;-77
2023/02/23 12:26:08;;;;;;;;;;;;;;;;;;4423392;32;19972;-79
2023/02/23 12:28:33;;;;;;;;;;;;;;;;;;4422623;32;19942;-79
2023/02/23 12:30:58;;;;;;;;;;;;;;;;;;4424424;32;19940;-79
2023/02/23 12:33:28;;;;;;;;;;;;;;;;;;4441415;32;20310;-78
2023/02/23 12:35:54;;;;;;;;;;;;;;;;;;4440070;32;19983;-79
2023/02/23 12:38:19;;;;;;;;;;;;;;;;;;4437620;32;19951;-80
2023/02/23 12:40:44;;;;;;;;;;;;;;;;;;4436107;32;19980;-79
2023/02/23 12:43:10;;;;;;;;;;;;;;;;;;4442664;32;19944;-79
2023/02/23 12:45:35;;;;;;;;;;;;;;;;;;4428511;32;19962;-79
2023/02/23 12:48:00;;;;;;;;;;;;;;;;;;4442935;32;19973;-80
2023/02/23 12:50:25;;;;;;;;;;;;;;;;;;4443253;32;19936;-78
2023/02/23 12:52:51;;;;;;;;;;;;;;;;;;4441028;32;20314;-79
2023/02/23 12:55:16;;;;;;;;;;;;;;;;;;4439519;32;19933;-79
2023/02/23 12:57:43;;;;;;;;;;;;;;;;;;4438482;32;19986;-79
2023/02/23 13:00:08;;;;;;;;;;;;;;;;;;4439207;32;19976;-80
2023/02/23 13:02:33;;;;;;;;;;;;;;;;;;4436605;32;19936;-78
2023/02/23 13:05:01;;;;;;;;;;;;;;;;;;4425249;32;20298;-80
2023/02/23 13:07:26;;;;;;;;;;;;;;;;;;4432720;32;19949;-79
2023/02/23 13:09:51;;;;;;;;;;;;;;;;;;4439846;32;19953;-80
2023/02/23 13:12:16;;;;;;;;;;;;;;;;;;4442033;32;19956;-79
2023/02/23 13:14:42;;;;;;;;;;;;;;;;;;4439464;32;19937;-80
2023/02/23 13:17:08;;;;;;;;;;;;;;;;;;4439195;32;19966;-79
2023/02/23 13:19:33;;;;;;;;;;;;;;;;;;4436325;32;19945;-80
2023/02/23 13:21:58;;;;;;;;;;;;;;;;;;4423510;32;19972;-79
2023/02/23 13:24:23;;;;;;;;;;;;;;;;;;4438621;32;19933;-79
2023/02/23 13:26:48;;;;;;;;;;;;;;;;;;4438650;32;19976;-78
2023/02/23 13:29:13;;;;;;;;;;;;;;;;;;4438373;32;19957;-79
2023/02/23 13:31:38;;;;;;;;;;;;;;;;;;4424158;32;19983;-80
2023/02/23 13:34:04;;;;;;;;;;;;;;;;;;4424286;32;20321;-80
2023/02/23 13:36:29;;;;;;;;;;;;;;;;;;4438536;32;19981;-80
2023/02/23 13:38:54;;;;;;;;;;;;;;;;;;4432138;32;20361;-79
2023/02/23 13:41:19;;;;;;;;;;;;;;;;;;4411358;32;19933;-79
2023/02/23 13:43:46;;;;;;;;;;;;;;;;;;4425898;32;20611;-79
2023/02/23 13:46:13;;;;;;;;;;;;;;;;;;4423474;32;19951;-79
2023/02/23 13:48:40;;;;;;;;;;;;;;;;;;4433803;32;19972;-79
2023/02/23 13:51:05;;;;;;;;;;;;;;;;;;4436296;32;19954;-78
2023/02/23 13:53:30;;;;;;;;;;;;;;;;;;4435536;32;19941;-80
2023/02/23 13:55:55;;;;;;;;;;;;;;;;;;4423217;32;19933;-79
2023/02/23 13:58:20;;;;;;;;;;;;;;;;;;4438361;32;19933;-80
2023/02/23 14:00:45;;;;;;;;;;;;;;;;;;4438064;32;19955;-80
2023/02/23 14:03:10;;;;;;;;;;;;;;;;;;4423968;32;19947;-79
2023/02/23 14:05:35;;;;;;;;;;;;;;;;;;4437285;32;19936;-79
2023/02/23 14:08:01;;;;;;;;;;;;;;;;;;4439881;32;20369;-82
2023/02/23 14:10:26;;;;;;;;;;;;;;;;;;4437063;32;19937;-79
2023/02/23 14:12:51;;;;;;;;;;;;;;;;;;4437767;32;20396;-80
2023/02/23 14:15:16;;;;;;;;;;;;;;;;;;4438949;32;19940;-80
2023/02/23 14:17:42;;;;;;;;;;;;;;;;;;4422774;32;19948;-80
2023/02/23 14:20:07;;;;;;;;;;;;;;;;;;4437415;32;20348;-80
2023/02/23 14:22:32;;;;;;;;;;;;;;;;;;4438238;32;19991;-80
2023/02/23 14:24:58;;;;;;;;;;;;;;;;;;4423373;32;20004;-79
2023/02/23 14:27:24;;;;;;;;;;;;;;;;;;4425303;32;19990;-79
2023/02/23 14:29:53;;;;;;;;;;;;;;;;;;4427795;32;19929;-80
2023/02/23 14:32:19;;;;;;;;;;;;;;;;;;4455163;32;20356;-80
2023/02/23 14:34:44;;;;;;;;;;;;;;;;;;4433776;32;19976;-80
2023/02/23 14:37:09;;;;;;;;;;;;;;;;;;4421624;32;19941;-80
2023/02/23 14:39:34;;;;;;;;;;;;;;;;;;4408858;32;20000;-79
2023/02/23 14:41:59;;;;;;;;;;;;;;;;;;4421457;32;19941;-79
2023/02/23 14:44:24;;;;;;;;;;;;;;;;;;4422670;32;19984;-80
2023/02/23 14:46:49;;;;;;;;;;;;;;;;;;4421745;32;20254;-78
2023/02/23 14:49:15;;;;;;;;;;;;;;;;;;4421485;32;20240;-78
2023/02/23 14:51:41;;;;;;;;;;;;;;;;;;4421279;32;19941;-78
2023/02/23 14:54:06;;;;;;;;;;;;;;;;;;4423122;32;19997;-78
2023/02/23 14:56:32;;;;;;;;;;;;;;;;;;4421018;32;19993;-79
2023/02/23 14:58:57;;;;;;;;;;;;;;;;;;4421027;32;20307;-78
2023/02/23 15:01:22;;;;;;;;;;;;;;;;;;4421196;32;20287;-79
2023/02/23 15:03:47;;;;;;;;;;;;;;;;;;4440028;32;20015;-78
2023/02/23 15:06:13;;;;;;;;;;;;;;;;;;4439762;32;19945;-79
2023/02/23 15:08:38;;;;;;;;;;;;;;;;;;4438568;32;19944;-79
2023/02/23 15:11:03;;;;;;;;;;;;;;;;;;4436886;32;19971;-78
2023/02/23 15:13:28;;;;;;;;;;;;;;;;;;4435389;32;19986;-79
2023/02/23 15:15:53;;;;;;;;;;;;;;;;;;4434424;32;19964;-77
2023/02/23 15:18:18;;;;;;;;;;;;;;;;;;4431271;32;20053;-80
2023/02/23 15:20:45;;;;;;;;;;;;;;;;;;4431525;32;19972;-80
2023/02/23 15:23:10;;;;;;;;;;;;;;;;;;4434879;32;20346;-78
2023/02/23 15:25:35;;;;;;;;;;;;;;;;;;4429991;32;20341;-78
2023/02/23 15:28:00;;;;;;;;;;;;;;;;;;4425225;32;19941;-78
2023/02/23 15:30:26;;;;;;;;;;;;;;;;;;4415288;32;19982;-78
2023/02/23 15:32:51;;;;;;;;;;;;;;;;;;4429038;32;19936;-80
2023/02/23 15:35:16;;;;;;;;;;;;;;;;;;4431954;32;19960;-78
2023/02/23 15:37:41;;;;;;;;;;;;;;;;;;4428730;32;19948;-79
2023/02/23 15:40:06;;;;;;;;;;;;;;;;;;4430638;32;19947;-79
2023/02/23 15:42:31;;;;;;;;;;;;;;;;;;4425762;32;19949;-80
2023/02/23 15:44:57;;;;;;;;;;;;;;;;;;4433322;32;19937;-78
2023/02/23 15:47:22;;;;;;;;;;;;;;;;;;4439659;32;19992;-79
2023/02/23 15:49:47;;;;;;;;;;;;;;;;;;4436111;32;19941;-79
2023/02/23 15:52:12;;;;;;;;;;;;;;;;;;4432570;32;19975;-77
2023/02/23 15:54:37;;;;;;;;;;;;;;;;;;4422867;32;19989;-80
2023/02/23 15:57:02;;;;;;;;;;;;;;;;;;4423680;32;20326;-77
2023/02/23 15:59:27;;;;;;;;;;;;;;;;;;4426349;32;19936;-79
2023/02/23 16:01:55;;;;;;;;;;;;;;;;;;4426953;32;20006;-78
2023/02/23 16:04:21;;;;;;;;;;;;;;;;;;4434415;32;19945;-80
2023/02/23 16:06:48;;;;;;;;;;;;;;;;;;4441161;32;19932;-80
2023/02/23 16:09:19;;;;;;;;;;;;;;;;;;4439660;32;19988;-78
2023/02/23 16:11:44;;;;;;;;;;;;;;;;;;4440137;32;19978;-79
2023/02/23 16:14:09;;;;;;;;;;;;;;;;;;4439721;32;19941;-78
2023/02/23 16:16:34;;;;;;;;;;;;;;;;;;4440616;32;19932;-80
2023/02/23 16:19:00;;;;;;;;;;;;;;;;;;4425394;32;19972;-78
2023/02/23 16:21:25;;;;;;;;;;;;;;;;;;4438724;32;19937;-79
2023/02/23 16:23:51;;;;;;;;;;;;;;;;;;4438889;32;20008;-80
2023/02/23 16:26:16;;;;;;;;;;;;;;;;;;4440720;32;19937;-78
2023/02/23 16:28:41;;;;;;;;;;;;;;;;;;4439299;32;19951;-79
2023/02/23 16:31:06;;;;;;;;;;;;;;;;;;4425151;32;20263;-81
2023/02/23 16:33:31;;;;;;;;;;;;;;;;;;4439170;32;19948;-79
2023/02/23 16:35:56;;;;;;;;;;;;;;;;;;4436359;32;19936;-79
2023/02/23 16:38:22;;;;;;;;;;;;;;;;;;4427025;32;19981;-78
2023/02/23 16:40:47;;;;;;;;;;;;;;;;;;4434715;32;19948;-79
2023/02/23 16:43:12;;;;;;;;;;;;;;;;;;4433372;32;20377;-79
2023/02/23 16:45:37;;;;;;;;;;;;;;;;;;4434291;32;19968;-78
2023/02/23 16:48:03;;;;;;;;;;;;;;;;;;4434123;32;19941;-77
2023/02/23 16:50:28;;;;;;;;;;;;;;;;;;4433195;32;19980;-78
2023/02/23 16:52:53;;;;;;;;;;;;;;;;;;4435345;32;19936;-77
2023/02/23 16:55:24;;;;;;;;;;;;;;;;;;4428395;32;19949;-78
2023/02/23 16:57:50;;;;;;;;;;;;;;;;;;4440170;32;19941;-78
2023/02/23 17:00:17;;;;;;;;;;;;;;;;;;4430323;32;19981;-79
2023/02/23 17:02:42;;;;;;;;;;;;;;;;;;4426111;32;19937;-78
2023/02/23 17:05:12;;;;;;;;;;;;;;;;;;4432533;32;19952;-77
2023/02/23 17:07:37;;;;;;;;;;;;;;;;;;4430348;32;20335;-76
2023/02/23 17:10:02;;;;;;;;;;;;;;;;;;4424700;32;19956;-76
2023/02/23 17:12:27;;;;;;;;;;;;;;;;;;4439099;32;19975;-76
2023/02/23 17:14:52;;;;;;;;;;;;;;;;;;4418868;32;19937;-77
2023/02/23 17:17:17;;;;;;;;;;;;;;;;;;4437326;32;19945;-77
2023/02/23 17:19:44;;;;;;;;;;;;;;;;;;4419476;32;19977;-78
2023/02/23 17:22:11;;;;;;;;;;;;;;;;;;4434438;32;19937;-78
2023/02/23 17:24:36;;;;;;;;;;;;;;;;;;4433148;32;19989;-78
2023/02/23 17:27:01;;;;;;;;;;;;;;;;;;4433620;32;20273;-77
2023/02/23 17:29:27;;;;;;;;;;;;;;;;;;4422576;32;19986;-77
2023/02/23 17:31:52;;;;;;;;;;;;;;;;;;4419960;32;19960;-76
2023/02/23 17:34:17;;;;;;;;;;;;;;;;;;4407147;32;19941;-77
2023/02/23 17:36:42;;;;;;;;;;;;;;;;;;4423370;32;20350;-76
2023/02/23 17:39:08;;;;;;;;;;;;;;;;;;4421856;32;19947;-78
2023/02/23 17:41:33;;;;;;;;;;;;;;;;;;4422186;32;20374;-78
2023/02/23 17:44:01;;;;;;;;;;;;;;;;;;4422906;32;20306;-77
2023/02/23 17:46:26;;;;;;;;;;;;;;;;;;4423377;32;19933;-77
2023/02/23 17:48:51;;;;;;;;;;;;;;;;;;4422904;32;20013;-77
2023/02/23 17:51:18;;;;;;;;;;;;;;;;;;4422050;32;19990;-79